sensor_id;sensor_type;location;lat;lon;timestamp;temperature;humidity
16825;DHT22;8529;48.108;-1.706;2023-05-10T00:02:00;13.70;99.90
16825;DHT22;8529;48.108;-1.706;2023-05-10T00:04:27;13.70;99.90
16825;DHT22;8529;48.108;-1.706;2023-05-10T00:06:54;13.70;99.90
16825;DHT22;8529;48.108;-1.706;2023-05-10T00:09:21;13.60;99.90
16825;DHT22;8529;48.108;-1.706;2023-05-10T00:11:49;13.60;99.90
16825;DHT22;8529;48.108;-1.706;2023-05-10T00:14:16;13.60;99.90
16825;DHT22;8529;48.108;-1.706;2023-05-10T00:16:43;13.60;99.90
16825;DHT22;8529;48.108;-1.706;2023-05-10T00:19:10;13.50;99.90
16825;DHT22;8529;48.108;-1.706;2023-05-10T00:21:37;13.50;99.90
16825;DHT22;8529;48.108;-1.706;2023-05-10T00:24:05;13.40;99.90
16825;DHT22;8529;48.108;-1.706;2023-05-10T00:26:31;13.50;99.90
16825;DHT22;8529;48.108;-1.706;2023-05-10T00:29:00;13.50;99.90
16825;DHT22;8529;48.108;-1.706;2023-05-10T00:31:27;13.50;99.90
16825;DHT22;8529;48.108;-1.706;2023-05-10T00:33:54;13.60;99.90
16825;DHT22;8529;48.108;-1.706;2023-05-10T00:36:21;13.60;99.90
16825;DHT22;8529;48.108;-1.706;2023-05-10T00:38:48;13.50;99.90
16825;DHT22;8529;48.108;-1.706;2023-05-10T00:41:14;13.50;99.90
16825;DHT22;8529;48.108;-1.706;2023-05-10T00:43:42;13.50;99.90
16825;DHT22;8529;48.108;-1.706;2023-05-10T00:46:10;13.50;99.90
16825;DHT22;8529;48.108;-1.706;2023-05-10T00:48:37;13.50;99.90
16825;DHT22;8529;48.108;-1.706;2023-05-10T00:51:04;13.50;99.90
16825;DHT22;8529;48.108;-1.706;2023-05-10T00:53:32;13.50;99.90
16825;DHT22;8529;48.108;-1.706;2023-05-10T00:55:59;13.50;99.90
16825;DHT22;8529;48.108;-1.706;2023-05-10T00:58:26;13.50;99.90
16825;DHT22;8529;48.108;-1.706;2023-05-10T01:00:55;13.50;99.90
16825;DHT22;8529;48.108;-1.706;2023-05-10T01:03:24;13.50;99.90
16825;DHT22;8529;48.108;-1.706;2023-05-10T01:05:51;13.50;99.90
16825;DHT22;8529;48.108;-1.706;2023-05-10T01:08:18;13.50;99.90
16825;DHT22;8529;48.108;-1.706;2023-05-10T01:10:45;13.40;99.90
16825;DHT22;8529;48.108;-1.706;2023-05-10T01:13:18;13.40;99.90
16825;DHT22;8529;48.108;-1.706;2023-05-10T01:15:50;13.40;99.90
16825;DHT22;8529;48.108;-1.706;2023-05-10T01:18:20;13.40;99.90
16825;DHT22;8529;48.108;-1.706;2023-05-10T01:20:56;13.30;99.90
16825;DHT22;8529;48.108;-1.706;2023-05-10T01:23:36;13.30;99.90
16825;DHT22;8529;48.108;-1.706;2023-05-10T01:26:34;13.30;99.90
16825;DHT22;8529;48.108;-1.706;2023-05-10T01:29:18;13.30;99.90
16825;DHT22;8529;48.108;-1.706;2023-05-10T01:32:23;13.30;99.90
16825;DHT22;8529;48.108;-1.706;2023-05-10T01:34:56;13.30;99.90
16825;DHT22;8529;48.108;-1.706;2023-05-10T01:37:31;13.30;99.90
16825;DHT22;8529;48.108;-1.706;2023-05-10T01:40:03;13.30;99.90
16825;DHT22;8529;48.108;-1.706;2023-05-10T01:42:38;13.20;99.90
16825;DHT22;8529;48.108;-1.706;2023-05-10T01:45:12;13.20;99.90
16825;DHT22;8529;48.108;-1.706;2023-05-10T01:47:43;13.20;99.90
16825;DHT22;8529;48.108;-1.706;2023-05-10T01:50:17;13.10;99.90
16825;DHT22;8529;48.108;-1.706;2023-05-10T01:52:49;13.10;99.90
16825;DHT22;8529;48.108;-1.706;2023-05-10T01:55:18;13.10;99.90
16825;DHT22;8529;48.108;-1.706;2023-05-10T01:57:48;13.10;99.90
16825;DHT22;8529;48.108;-1.706;2023-05-10T02:00:19;13.10;99.90
16825;DHT22;8529;48.108;-1.706;2023-05-10T02:02:50;13.10;99.90
16825;DHT22;8529;48.108;-1.706;2023-05-10T02:05:17;13.10;99.90
16825;DHT22;8529;48.108;-1.706;2023-05-10T02:07:45;13.10;99.90
16825;DHT22;8529;48.108;-1.706;2023-05-10T02:10:13;13.10;99.90
16825;DHT22;8529;48.108;-1.706;2023-05-10T02:12:43;13.10;99.90
16825;DHT22;8529;48.108;-1.706;2023-05-10T02:15:11;13.00;99.90
16825;DHT22;8529;48.108;-1.706;2023-05-10T02:17:39;13.00;99.90
16825;DHT22;8529;48.108;-1.706;2023-05-10T02:20:10;12.90;99.90
16825;DHT22;8529;48.108;-1.706;2023-05-10T02:22:39;12.90;99.90
16825;DHT22;8529;48.108;-1.706;2023-05-10T02:25:08;12.80;99.90
16825;DHT22;8529;48.108;-1.706;2023-05-10T02:27:36;12.80;99.90
16825;DHT22;8529;48.108;-1.706;2023-05-10T02:30:05;12.80;99.90
16825;DHT22;8529;48.108;-1.706;2023-05-10T02:32:33;12.80;99.90
16825;DHT22;8529;48.108;-1.706;2023-05-10T02:35:02;12.80;99.90
16825;DHT22;8529;48.108;-1.706;2023-05-10T02:37:31;12.80;99.90
16825;DHT22;8529;48.108;-1.706;2023-05-10T02:39:59;12.80;99.90
16825;DHT22;8529;48.108;-1.706;2023-05-10T02:42:29;12.80;99.90
16825;DHT22;8529;48.108;-1.706;2023-05-10T02:45:00;12.90;99.90
16825;DHT22;8529;48.108;-1.706;2023-05-10T02:47:27;12.90;99.90
16825;DHT22;8529;48.108;-1.706;2023-05-10T02:49:55;12.90;99.90
16825;DHT22;8529;48.108;-1.706;2023-05-10T02:52:39;12.80;99.90
16825;DHT22;8529;48.108;-1.706;2023-05-10T02:55:09;12.80;99.90
16825;DHT22;8529;48.108;-1.706;2023-05-10T02:57:42;12.80;99.90
16825;DHT22;8529;48.108;-1.706;2023-05-10T03:00:10;12.80;99.90
16825;DHT22;8529;48.108;-1.706;2023-05-10T03:02:37;12.80;99.90
16825;DHT22;8529;48.108;-1.706;2023-05-10T03:05:04;12.80;99.90
16825;DHT22;8529;48.108;-1.706;2023-05-10T03:07:33;12.80;99.90
16825;DHT22;8529;48.108;-1.706;2023-05-10T03:10:00;12.80;99.90
16825;DHT22;8529;48.108;-1.706;2023-05-10T03:12:39;12.80;99.90
16825;DHT22;8529;48.108;-1.706;2023-05-10T03:15:11;12.80;99.90
16825;DHT22;8529;48.108;-1.706;2023-05-10T03:17:46;12.80;99.90
16825;DHT22;8529;48.108;-1.706;2023-05-10T03:20:21;12.80;99.90
16825;DHT22;8529;48.108;-1.706;2023-05-10T03:22:53;12.70;99.90
16825;DHT22;8529;48.108;-1.706;2023-05-10T03:25:23;12.70;99.90
16825;DHT22;8529;48.108;-1.706;2023-05-10T03:27:52;12.70;99.90
16825;DHT22;8529;48.108;-1.706;2023-05-10T03:30:19;12.60;99.90
16825;DHT22;8529;48.108;-1.706;2023-05-10T03:32:46;12.60;99.90
16825;DHT22;8529;48.108;-1.706;2023-05-10T03:35:13;12.60;99.90
16825;DHT22;8529;48.108;-1.706;2023-05-10T03:37:40;12.70;99.90
16825;DHT22;8529;48.108;-1.706;2023-05-10T03:40:09;12.60;99.90
16825;DHT22;8529;48.108;-1.706;2023-05-10T03:42:36;12.60;99.90
16825;DHT22;8529;48.108;-1.706;2023-05-10T03:45:03;12.60;99.90
16825;DHT22;8529;48.108;-1.706;2023-05-10T03:47:30;12.60;99.90
16825;DHT22;8529;48.108;-1.706;2023-05-10T03:49:57;12.70;99.90
16825;DHT22;8529;48.108;-1.706;2023-05-10T03:52:24;12.70;99.90
16825;DHT22;8529;48.108;-1.706;2023-05-10T03:54:51;12.70;99.90
16825;DHT22;8529;48.108;-1.706;2023-05-10T03:57:19;12.60;99.90
16825;DHT22;8529;48.108;-1.706;2023-05-10T03:59:46;12.60;99.90
16825;DHT22;8529;48.108;-1.706;2023-05-10T04:02:13;12.60;99.90
16825;DHT22;8529;48.108;-1.706;2023-05-10T04:04:40;12.60;99.90
16825;DHT22;8529;48.108;-1.706;2023-05-10T04:07:07;12.50;99.90
16825;DHT22;8529;48.108;-1.706;2023-05-10T04:09:35;12.60;99.90
16825;DHT22;8529;48.108;-1.706;2023-05-10T04:12:03;12.60;99.90
16825;DHT22;8529;48.108;-1.706;2023-05-10T04:14:31;12.60;99.90
16825;DHT22;8529;48.108;-1.706;2023-05-10T04:16:58;12.60;99.90
16825;DHT22;8529;48.108;-1.706;2023-05-10T04:19:29;12.70;99.90
16825;DHT22;8529;48.108;-1.706;2023-05-10T04:21:56;12.70;99.90
16825;DHT22;8529;48.108;-1.706;2023-05-10T04:24:22;12.70;99.90
16825;DHT22;8529;48.108;-1.706;2023-05-10T04:26:49;12.70;99.90
16825;DHT22;8529;48.108;-1.706;2023-05-10T04:29:16;12.60;99.90
16825;DHT22;8529;48.108;-1.706;2023-05-10T04:31:45;12.50;99.90
16825;DHT22;8529;48.108;-1.706;2023-05-10T04:34:12;12.50;99.90
16825;DHT22;8529;48.108;-1.706;2023-05-10T04:36:39;12.40;99.90
16825;DHT22;8529;48.108;-1.706;2023-05-10T04:39:06;12.40;99.90
16825;DHT22;8529;48.108;-1.706;2023-05-10T04:41:32;12.30;99.90
16825;DHT22;8529;48.108;-1.706;2023-05-10T04:43:59;12.30;99.90
16825;DHT22;8529;48.108;-1.706;2023-05-10T04:46:26;12.40;99.90
16825;DHT22;8529;48.108;-1.706;2023-05-10T04:48:54;12.40;99.90
16825;DHT22;8529;48.108;-1.706;2023-05-10T04:51:21;12.50;99.90
16825;DHT22;8529;48.108;-1.706;2023-05-10T04:53:48;12.50;99.90
16825;DHT22;8529;48.108;-1.706;2023-05-10T04:56:15;12.50;99.90
16825;DHT22;8529;48.108;-1.706;2023-05-10T04:58:42;12.60;99.90
16825;DHT22;8529;48.108;-1.706;2023-05-10T05:01:09;12.60;99.90
16825;DHT22;8529;48.108;-1.706;2023-05-10T05:03:36;12.60;99.90
16825;DHT22;8529;48.108;-1.706;2023-05-10T05:06:05;12.60;99.90
16825;DHT22;8529;48.108;-1.706;2023-05-10T05:08:32;12.60;99.90
16825;DHT22;8529;48.108;-1.706;2023-05-10T05:10:59;12.60;99.90
16825;DHT22;8529;48.108;-1.706;2023-05-10T05:13:26;12.60;99.90
16825;DHT22;8529;48.108;-1.706;2023-05-10T05:15:53;12.70;99.90
16825;DHT22;8529;48.108;-1.706;2023-05-10T05:18:20;12.70;99.90
16825;DHT22;8529;48.108;-1.706;2023-05-10T05:20:47;12.70;99.90
16825;DHT22;8529;48.108;-1.706;2023-05-10T05:23:15;12.80;99.90
16825;DHT22;8529;48.108;-1.706;2023-05-10T05:25:42;12.80;99.90
16825;DHT22;8529;48.108;-1.706;2023-05-10T05:28:09;12.80;99.90
16825;DHT22;8529;48.108;-1.706;2023-05-10T05:30:36;12.90;99.90
16825;DHT22;8529;48.108;-1.706;2023-05-10T05:33:03;12.90;99.90
16825;DHT22;8529;48.108;-1.706;2023-05-10T05:35:29;12.90;99.90
16825;DHT22;8529;48.108;-1.706;2023-05-10T05:37:56;12.90;99.90
16825;DHT22;8529;48.108;-1.706;2023-05-10T05:40:25;13.00;99.90
16825;DHT22;8529;48.108;-1.706;2023-05-10T05:42:52;13.00;99.90
16825;DHT22;8529;48.108;-1.706;2023-05-10T05:45:19;13.00;99.90
16825;DHT22;8529;48.108;-1.706;2023-05-10T05:47:46;13.00;99.90
16825;DHT22;8529;48.108;-1.706;2023-05-10T05:50:13;13.00;99.90
16825;DHT22;8529;48.108;-1.706;2023-05-10T05:52:40;13.00;99.90
16825;DHT22;8529;48.108;-1.706;2023-05-10T05:55:07;13.00;99.90
16825;DHT22;8529;48.108;-1.706;2023-05-10T05:57:35;13.00;99.90
16825;DHT22;8529;48.108;-1.706;2023-05-10T06:00:03;13.00;99.90
16825;DHT22;8529;48.108;-1.706;2023-05-10T06:02:30;13.00;99.90
16825;DHT22;8529;48.108;-1.706;2023-05-10T06:04:57;13.00;99.90
16825;DHT22;8529;48.108;-1.706;2023-05-10T06:07:24;13.00;99.90
16825;DHT22;8529;48.108;-1.706;2023-05-10T06:09:51;13.00;99.90
16825;DHT22;8529;48.108;-1.706;2023-05-10T06:12:18;13.10;99.90
16825;DHT22;8529;48.108;-1.706;2023-05-10T06:14:46;13.10;99.90
16825;DHT22;8529;48.108;-1.706;2023-05-10T06:17:13;13.10;99.90
16825;DHT22;8529;48.108;-1.706;2023-05-10T06:19:40;13.10;99.90
16825;DHT22;8529;48.108;-1.706;2023-05-10T06:22:06;13.10;99.90
16825;DHT22;8529;48.108;-1.706;2023-05-10T06:24:33;13.20;99.90
16825;DHT22;8529;48.108;-1.706;2023-05-10T06:27:00;13.20;99.90
16825;DHT22;8529;48.108;-1.706;2023-05-10T06:29:27;13.20;99.90
16825;DHT22;8529;48.108;-1.706;2023-05-10T06:31:55;13.20;99.90
16825;DHT22;8529;48.108;-1.706;2023-05-10T06:34:22;13.20;99.90
16825;DHT22;8529;48.108;-1.706;2023-05-10T06:36:49;13.20;99.90
16825;DHT22;8529;48.108;-1.706;2023-05-10T06:39:17;13.20;99.90
16825;DHT22;8529;48.108;-1.706;2023-05-10T06:41:44;13.20;99.90
16825;DHT22;8529;48.108;-1.706;2023-05-10T06:44:11;13.30;99.90
16825;DHT22;8529;48.108;-1.706;2023-05-10T06:46:38;13.30;99.90
16825;DHT22;8529;48.108;-1.706;2023-05-10T06:49:06;13.40;99.90
16825;DHT22;8529;48.108;-1.706;2023-05-10T06:51:33;13.40;99.90
16825;DHT22;8529;48.108;-1.706;2023-05-10T06:54:00;13.40;99.90
16825;DHT22;8529;48.108;-1.706;2023-05-10T06:56:27;13.40;99.90
16825;DHT22;8529;48.108;-1.706;2023-05-10T06:58:54;13.50;99.90
16825;DHT22;8529;48.108;-1.706;2023-05-10T07:01:21;13.50;99.90
16825;DHT22;8529;48.108;-1.706;2023-05-10T07:03:48;13.60;99.90
16825;DHT22;8529;48.108;-1.706;2023-05-10T07:06:17;13.60;99.90
16825;DHT22;8529;48.108;-1.706;2023-05-10T07:08:44;13.60;99.90
16825;DHT22;8529;48.108;-1.706;2023-05-10T07:11:11;13.60;99.90
16825;DHT22;8529;48.108;-1.706;2023-05-10T07:13:38;13.70;99.90
16825;DHT22;8529;48.108;-1.706;2023-05-10T07:16:09;13.70;99.90
16825;DHT22;8529;48.108;-1.706;2023-05-10T07:18:36;13.80;99.90
16825;DHT22;8529;48.108;-1.706;2023-05-10T07:21:03;13.80;99.90
16825;DHT22;8529;48.108;-1.706;2023-05-10T07:23:32;13.90;99.90
16825;DHT22;8529;48.108;-1.706;2023-05-10T07:25:58;13.90;99.90
16825;DHT22;8529;48.108;-1.706;2023-05-10T07:28:25;13.90;99.90
16825;DHT22;8529;48.108;-1.706;2023-05-10T07:30:52;13.90;99.90
16825;DHT22;8529;48.108;-1.706;2023-05-10T07:33:19;13.90;99.90
16825;DHT22;8529;48.108;-1.706;2023-05-10T07:35:46;14.00;99.90
16825;DHT22;8529;48.108;-1.706;2023-05-10T07:38:13;14.10;99.90
16825;DHT22;8529;48.108;-1.706;2023-05-10T07:40:41;14.10;99.90
16825;DHT22;8529;48.108;-1.706;2023-05-10T07:43:08;14.20;99.90
16825;DHT22;8529;48.108;-1.706;2023-05-10T07:45:35;14.20;99.90
16825;DHT22;8529;48.108;-1.706;2023-05-10T07:48:02;14.20;99.90
16825;DHT22;8529;48.108;-1.706;2023-05-10T07:50:29;14.20;99.90
16825;DHT22;8529;48.108;-1.706;2023-05-10T07:52:56;14.30;99.90
16825;DHT22;8529;48.108;-1.706;2023-05-10T07:55:23;14.30;99.90
16825;DHT22;8529;48.108;-1.706;2023-05-10T07:57:51;14.30;99.90
16825;DHT22;8529;48.108;-1.706;2023-05-10T08:00:19;14.30;99.90
16825;DHT22;8529;48.108;-1.706;2023-05-10T08:02:47;14.40;99.90
16825;DHT22;8529;48.108;-1.706;2023-05-10T08:05:14;14.30;99.90
16825;DHT22;8529;48.108;-1.706;2023-05-10T08:07:41;14.30;99.90
16825;DHT22;8529;48.108;-1.706;2023-05-10T08:10:09;14.20;99.90
16825;DHT22;8529;48.108;-1.706;2023-05-10T08:12:36;14.20;99.90
16825;DHT22;8529;48.108;-1.706;2023-05-10T08:15:06;14.20;99.90
16825;DHT22;8529;48.108;-1.706;2023-05-10T08:17:33;14.20;99.90
16825;DHT22;8529;48.108;-1.706;2023-05-10T08:20:00;14.30;99.90
16825;DHT22;8529;48.108;-1.706;2023-05-10T08:22:27;14.20;99.90
16825;DHT22;8529;48.108;-1.706;2023-05-10T08:24:54;14.20;99.90
16825;DHT22;8529;48.108;-1.706;2023-05-10T08:27:21;14.20;99.90
16825;DHT22;8529;48.108;-1.706;2023-05-10T08:29:48;14.10;99.90
16825;DHT22;8529;48.108;-1.706;2023-05-10T08:32:16;14.10;99.90
16825;DHT22;8529;48.108;-1.706;2023-05-10T08:34:43;14.10;99.90
16825;DHT22;8529;48.108;-1.706;2023-05-10T08:37:10;14.20;99.90
16825;DHT22;8529;48.108;-1.706;2023-05-10T08:39:38;14.20;99.90
16825;DHT22;8529;48.108;-1.706;2023-05-10T08:42:06;14.30;99.90
16825;DHT22;8529;48.108;-1.706;2023-05-10T08:44:35;14.30;99.90
16825;DHT22;8529;48.108;-1.706;2023-05-10T08:47:05;14.40;99.90
16825;DHT22;8529;48.108;-1.706;2023-05-10T08:49:34;14.40;99.90
16825;DHT22;8529;48.108;-1.706;2023-05-10T08:52:03;14.50;99.90
16825;DHT22;8529;48.108;-1.706;2023-05-10T08:54:31;14.60;99.90
16825;DHT22;8529;48.108;-1.706;2023-05-10T08:56:58;14.60;99.90
16825;DHT22;8529;48.108;-1.706;2023-05-10T08:59:25;14.60;99.90
16825;DHT22;8529;48.108;-1.706;2023-05-10T09:01:53;14.60;99.90
16825;DHT22;8529;48.108;-1.706;2023-05-10T09:04:22;14.60;99.90
16825;DHT22;8529;48.108;-1.706;2023-05-10T09:06:51;14.60;99.90
16825;DHT22;8529;48.108;-1.706;2023-05-10T09:09:19;14.60;99.90
16825;DHT22;8529;48.108;-1.706;2023-05-10T09:11:47;14.60;99.90
16825;DHT22;8529;48.108;-1.706;2023-05-10T09:14:15;14.60;99.90
16825;DHT22;8529;48.108;-1.706;2023-05-10T09:16:43;14.60;99.90
16825;DHT22;8529;48.108;-1.706;2023-05-10T09:19:10;14.60;99.90
16825;DHT22;8529;48.108;-1.706;2023-05-10T09:21:37;14.60;99.90
16825;DHT22;8529;48.108;-1.706;2023-05-10T09:24:07;14.60;99.90
16825;DHT22;8529;48.108;-1.706;2023-05-10T09:26:34;14.50;99.90
16825;DHT22;8529;48.108;-1.706;2023-05-10T09:29:02;14.60;99.90
16825;DHT22;8529;48.108;-1.706;2023-05-10T09:31:47;14.60;99.90
16825;DHT22;8529;48.108;-1.706;2023-05-10T09:34:17;14.60;99.90
16825;DHT22;8529;48.108;-1.706;2023-05-10T09:36:52;14.60;99.90
16825;DHT22;8529;48.108;-1.706;2023-05-10T09:39:21;14.50;99.90
16825;DHT22;8529;48.108;-1.706;2023-05-10T09:41:56;14.50;99.90
16825;DHT22;8529;48.108;-1.706;2023-05-10T09:44:25;14.50;99.90
16825;DHT22;8529;48.108;-1.706;2023-05-10T09:46:52;14.40;99.90
16825;DHT22;8529;48.108;-1.706;2023-05-10T09:49:20;14.50;99.90
16825;DHT22;8529;48.108;-1.706;2023-05-10T09:51:47;14.50;99.90
16825;DHT22;8529;48.108;-1.706;2023-05-10T09:54:16;14.60;99.90
16825;DHT22;8529;48.108;-1.706;2023-05-10T09:56:44;14.70;99.90
16825;DHT22;8529;48.108;-1.706;2023-05-10T09:59:11;14.70;99.90
16825;DHT22;8529;48.108;-1.706;2023-05-10T10:01:39;14.80;99.90
16825;DHT22;8529;48.108;-1.706;2023-05-10T10:04:08;14.80;99.90
16825;DHT22;8529;48.108;-1.706;2023-05-10T10:06:36;14.80;99.90
16825;DHT22;8529;48.108;-1.706;2023-05-10T10:09:04;14.90;99.90
16825;DHT22;8529;48.108;-1.706;2023-05-10T10:11:31;14.80;99.90
16825;DHT22;8529;48.108;-1.706;2023-05-10T10:13:59;14.80;99.90
16825;DHT22;8529;48.108;-1.706;2023-05-10T10:16:27;14.90;99.90
16825;DHT22;8529;48.108;-1.706;2023-05-10T10:18:55;14.90;99.90
16825;DHT22;8529;48.108;-1.706;2023-05-10T10:21:22;15.00;99.90
16825;DHT22;8529;48.108;-1.706;2023-05-10T10:23:49;15.10;99.90
16825;DHT22;8529;48.108;-1.706;2023-05-10T10:26:17;15.10;99.90
16825;DHT22;8529;48.108;-1.706;2023-05-10T10:28:51;15.20;99.90
16825;DHT22;8529;48.108;-1.706;2023-05-10T10:31:28;15.10;99.90
16825;DHT22;8529;48.108;-1.706;2023-05-10T10:34:05;15.00;99.90
16825;DHT22;8529;48.108;-1.706;2023-05-10T10:36:39;15.00;99.90
16825;DHT22;8529;48.108;-1.706;2023-05-10T10:39:09;15.00;99.90
16825;DHT22;8529;48.108;-1.706;2023-05-10T10:41:38;15.00;99.90
16825;DHT22;8529;48.108;-1.706;2023-05-10T10:44:39;14.90;99.90
16825;DHT22;8529;48.108;-1.706;2023-05-10T10:47:24;14.90;99.90
16825;DHT22;8529;48.108;-1.706;2023-05-10T10:50:05;14.90;99.90
16825;DHT22;8529;48.108;-1.706;2023-05-10T10:52:34;14.80;99.90
16825;DHT22;8529;48.108;-1.706;2023-05-10T10:55:03;14.90;99.90
16825;DHT22;8529;48.108;-1.706;2023-05-10T10:57:43;15.00;99.90
16825;DHT22;8529;48.108;-1.706;2023-05-10T11:00:22;15.10;99.90
16825;DHT22;8529;48.108;-1.706;2023-05-10T11:02:52;15.20;99.90
16825;DHT22;8529;48.108;-1.706;2023-05-10T11:08:13;15.40;99.90
16825;DHT22;8529;48.108;-1.706;2023-05-10T11:10:48;15.40;99.90
16825;DHT22;8529;48.108;-1.706;2023-05-10T11:13:27;15.50;99.90
16825;DHT22;8529;48.108;-1.706;2023-05-10T11:15:54;15.40;99.90
16825;DHT22;8529;48.108;-1.706;2023-05-10T11:18:26;15.40;99.90
16825;DHT22;8529;48.108;-1.706;2023-05-10T11:20:56;15.30;99.90
16825;DHT22;8529;48.108;-1.706;2023-05-10T11:23:28;15.20;99.90
16825;DHT22;8529;48.108;-1.706;2023-05-10T11:25:55;15.10;99.90
16825;DHT22;8529;48.108;-1.706;2023-05-10T11:28:23;15.00;99.90
16825;DHT22;8529;48.108;-1.706;2023-05-10T11:30:50;14.90;99.90
16825;DHT22;8529;48.108;-1.706;2023-05-10T11:33:18;14.80;99.90
16825;DHT22;8529;48.108;-1.706;2023-05-10T11:35:47;14.80;99.90
16825;DHT22;8529;48.108;-1.706;2023-05-10T11:38:14;14.60;99.90
16825;DHT22;8529;48.108;-1.706;2023-05-10T11:40:41;14.50;99.90
16825;DHT22;8529;48.108;-1.706;2023-05-10T11:43:09;14.40;99.90
16825;DHT22;8529;48.108;-1.706;2023-05-10T11:45:37;14.50;99.90
16825;DHT22;8529;48.108;-1.706;2023-05-10T11:48:04;14.50;99.90
16825;DHT22;8529;48.108;-1.706;2023-05-10T11:50:31;14.70;99.90
16825;DHT22;8529;48.108;-1.706;2023-05-10T11:53:00;14.90;99.90
16825;DHT22;8529;48.108;-1.706;2023-05-10T11:55:27;15.10;99.90
16825;DHT22;8529;48.108;-1.706;2023-05-10T11:57:59;15.30;99.90
16825;DHT22;8529;48.108;-1.706;2023-05-10T12:00:26;15.30;99.90
16825;DHT22;8529;48.108;-1.706;2023-05-10T12:02:53;15.30;99.90
16825;DHT22;8529;48.108;-1.706;2023-05-10T12:05:20;15.20;99.90
16825;DHT22;8529;48.108;-1.706;2023-05-10T12:07:48;15.10;99.90
16825;DHT22;8529;48.108;-1.706;2023-05-10T12:10:17;14.90;99.90
16825;DHT22;8529;48.108;-1.706;2023-05-10T12:12:52;14.90;99.90
16825;DHT22;8529;48.108;-1.706;2023-05-10T12:15:20;14.80;99.90
16825;DHT22;8529;48.108;-1.706;2023-05-10T12:17:48;14.80;99.90
16825;DHT22;8529;48.108;-1.706;2023-05-10T12:20:18;14.70;99.90
16825;DHT22;8529;48.108;-1.706;2023-05-10T12:22:50;14.70;99.90
16825;DHT22;8529;48.108;-1.706;2023-05-10T12:25:21;14.60;99.90
16825;DHT22;8529;48.108;-1.706;2023-05-10T12:27:51;14.60;99.90
16825;DHT22;8529;48.108;-1.706;2023-05-10T12:30:22;14.60;99.90
16825;DHT22;8529;48.108;-1.706;2023-05-10T12:32:50;14.50;99.90
16825;DHT22;8529;48.108;-1.706;2023-05-10T12:35:17;14.50;99.90
16825;DHT22;8529;48.108;-1.706;2023-05-10T12:37:47;14.50;99.90
16825;DHT22;8529;48.108;-1.706;2023-05-10T12:40:14;14.50;99.90
16825;DHT22;8529;48.108;-1.706;2023-05-10T12:42:43;14.50;99.90
16825;DHT22;8529;48.108;-1.706;2023-05-10T12:45:11;14.50;99.90
16825;DHT22;8529;48.108;-1.706;2023-05-10T12:47:38;14.50;99.90
16825;DHT22;8529;48.108;-1.706;2023-05-10T12:50:06;14.50;99.90
16825;DHT22;8529;48.108;-1.706;2023-05-10T12:52:33;14.60;99.90
16825;DHT22;8529;48.108;-1.706;2023-05-10T12:55:00;14.60;99.90
16825;DHT22;8529;48.108;-1.706;2023-05-10T12:57:28;14.70;99.90
16825;DHT22;8529;48.108;-1.706;2023-05-10T12:59:57;14.70;99.90
16825;DHT22;8529;48.108;-1.706;2023-05-10T13:02:24;14.80;99.90
16825;DHT22;8529;48.108;-1.706;2023-05-10T13:04:51;15.00;99.90
16825;DHT22;8529;48.108;-1.706;2023-05-10T13:07:18;15.00;99.90
16825;DHT22;8529;48.108;-1.706;2023-05-10T13:09:45;15.10;99.90
16825;DHT22;8529;48.108;-1.706;2023-05-10T13:12:11;15.20;99.90
16825;DHT22;8529;48.108;-1.706;2023-05-10T13:14:38;15.20;99.90
16825;DHT22;8529;48.108;-1.706;2023-05-10T13:17:08;15.20;99.90
16825;DHT22;8529;48.108;-1.706;2023-05-10T13:19:35;15.20;99.90
16825;DHT22;8529;48.108;-1.706;2023-05-10T13:22:02;15.20;99.90
16825;DHT22;8529;48.108;-1.706;2023-05-10T13:24:29;15.20;99.90
16825;DHT22;8529;48.108;-1.706;2023-05-10T13:26:56;15.30;99.90
16825;DHT22;8529;48.108;-1.706;2023-05-10T13:29:23;15.20;99.90
16825;DHT22;8529;48.108;-1.706;2023-05-10T13:31:50;15.20;99.90
16825;DHT22;8529;48.108;-1.706;2023-05-10T13:34:18;15.20;99.90
16825;DHT22;8529;48.108;-1.706;2023-05-10T13:36:47;15.30;99.90
16825;DHT22;8529;48.108;-1.706;2023-05-10T13:39:14;15.30;99.90
16825;DHT22;8529;48.108;-1.706;2023-05-10T13:41:41;15.30;99.90
16825;DHT22;8529;48.108;-1.706;2023-05-10T13:44:08;15.30;99.90
16825;DHT22;8529;48.108;-1.706;2023-05-10T13:46:35;15.10;99.90
16825;DHT22;8529;48.108;-1.706;2023-05-10T13:49:03;14.90;99.90
16825;DHT22;8529;48.108;-1.706;2023-05-10T13:51:31;14.70;99.90
16825;DHT22;8529;48.108;-1.706;2023-05-10T13:53:58;14.50;99.90
16825;DHT22;8529;48.108;-1.706;2023-05-10T13:56:25;14.50;99.90
16825;DHT22;8529;48.108;-1.706;2023-05-10T13:58:52;14.40;99.90
16825;DHT22;8529;48.108;-1.706;2023-05-10T14:01:19;14.30;99.90
16825;DHT22;8529;48.108;-1.706;2023-05-10T14:03:46;14.30;99.90
16825;DHT22;8529;48.108;-1.706;2023-05-10T14:06:13;14.40;99.90
16825;DHT22;8529;48.108;-1.706;2023-05-10T14:08:41;14.50;99.90
16825;DHT22;8529;48.108;-1.706;2023-05-10T14:11:08;14.50;99.90
16825;DHT22;8529;48.108;-1.706;2023-05-10T14:13:35;14.60;99.90
16825;DHT22;8529;48.108;-1.706;2023-05-10T14:16:02;14.70;99.90
16825;DHT22;8529;48.108;-1.706;2023-05-10T14:18:29;14.80;99.90
16825;DHT22;8529;48.108;-1.706;2023-05-10T14:20:56;14.90;99.90
16825;DHT22;8529;48.108;-1.706;2023-05-10T14:23:23;15.00;99.90
16825;DHT22;8529;48.108;-1.706;2023-05-10T14:25:52;15.00;99.90
16825;DHT22;8529;48.108;-1.706;2023-05-10T14:28:19;15.10;99.90
16825;DHT22;8529;48.108;-1.706;2023-05-10T14:30:46;15.10;99.90
16825;DHT22;8529;48.108;-1.706;2023-05-10T14:33:13;15.10;99.90
16825;DHT22;8529;48.108;-1.706;2023-05-10T14:35:40;15.10;99.90
16825;DHT22;8529;48.108;-1.706;2023-05-10T14:38:07;15.10;99.90
16825;DHT22;8529;48.108;-1.706;2023-05-10T14:40:34;15.10;99.90
16825;DHT22;8529;48.108;-1.706;2023-05-10T14:43:02;15.20;99.90
16825;DHT22;8529;48.108;-1.706;2023-05-10T14:45:29;15.20;99.90
16825;DHT22;8529;48.108;-1.706;2023-05-10T14:47:56;15.10;99.90
16825;DHT22;8529;48.108;-1.706;2023-05-10T14:50:24;15.20;99.90
16825;DHT22;8529;48.108;-1.706;2023-05-10T14:52:51;15.10;99.90
16825;DHT22;8529;48.108;-1.706;2023-05-10T14:55:18;15.10;99.90
16825;DHT22;8529;48.108;-1.706;2023-05-10T14:57:45;15.00;99.90
16825;DHT22;8529;48.108;-1.706;2023-05-10T15:00:17;15.00;99.90
16825;DHT22;8529;48.108;-1.706;2023-05-10T15:02:44;14.90;99.90
16825;DHT22;8529;48.108;-1.706;2023-05-10T15:05:11;14.90;99.90
16825;DHT22;8529;48.108;-1.706;2023-05-10T15:07:38;15.00;99.90
16825;DHT22;8529;48.108;-1.706;2023-05-10T15:10:06;15.10;99.90
16825;DHT22;8529;48.108;-1.706;2023-05-10T15:12:33;15.10;99.90
16825;DHT22;8529;48.108;-1.706;2023-05-10T15:15:00;15.10;99.90
16825;DHT22;8529;48.108;-1.706;2023-05-10T15:17:29;15.10;99.90
16825;DHT22;8529;48.108;-1.706;2023-05-10T15:19:55;15.20;99.90
16825;DHT22;8529;48.108;-1.706;2023-05-10T15:22:22;15.10;99.90
16825;DHT22;8529;48.108;-1.706;2023-05-10T15:24:49;15.10;99.90
16825;DHT22;8529;48.108;-1.706;2023-05-10T15:27:16;15.10;99.90
16825;DHT22;8529;48.108;-1.706;2023-05-10T15:29:43;15.10;99.90
16825;DHT22;8529;48.108;-1.706;2023-05-10T15:32:10;15.10;99.90
16825;DHT22;8529;48.108;-1.706;2023-05-10T15:34:39;15.00;99.90
16825;DHT22;8529;48.108;-1.706;2023-05-10T15:37:06;15.00;99.90
16825;DHT22;8529;48.108;-1.706;2023-05-10T15:39:33;15.00;99.90
16825;DHT22;8529;48.108;-1.706;2023-05-10T15:42:00;15.00;99.90